Time;durP1;ratioP1;P1;durP2;ratioP2;P2;SDS_P1;SDS_P2;PMS_P1;PMS_P2;Temp;Humidity;BMP_temperature;BMP_pressure;BME280_temperature;BME280_humidity;BME280_pressure;Samples;Min_cycle;Max_cycle;Signal;HPM_P1;HPM_P2
2023/08/03 00:00:23;;;;;;;0.97;0.97;;;19.00;99.90;;;;;;5011455;28;20215;-52
2023/08/03 00:02:50;;;;;;;0.70;0.70;;;19.00;99.90;;;;;;5002085;28;20263;-52
2023/08/03 00:05:19;;;;;;;1.80;0.80;;;18.90;99.90;;;;;;5011483;28;20257;-52
2023/08/03 00:07:47;;;;;;;1.60;0.90;;;18.90;99.90;;;;;;5011686;28;20219;-52
2023/08/03 00:10:14;;;;;;;0.77;0.77;;;18.90;99.90;;;;;;5006676;28;20263;-51
2023/08/03 00:12:42;;;;;;;0.70;0.70;;;19.00;99.90;;;;;;5006591;28;20212;-52
2023/08/03 00:15:10;;;;;;;1.53;1.20;;;18.90;99.90;;;;;;5003572;28;20196;-52
2023/08/03 00:17:37;;;;;;;0.87;0.83;;;18.90;99.90;;;;;;5011341;28;20223;-51
2023/08/03 00:20:05;;;;;;;0.83;0.80;;;18.90;99.90;;;;;;5011371;28;20712;-52
2023/08/03 00:22:32;;;;;;;2.10;1.53;;;18.90;99.90;;;;;;5009366;28;20211;-52
2023/08/03 00:24:59;;;;;;;1.13;0.97;;;18.90;99.90;;;;;;5014486;28;20257;-52
2023/08/03 00:27:26;;;;;;;2.03;0.90;;;18.90;99.90;;;;;;5014972;28;20219;-52
2023/08/03 00:29:55;;;;;;;1.10;1.10;;;18.90;99.90;;;;;;5013837;28;20257;-52
2023/08/03 00:32:22;;;;;;;1.20;1.00;;;19.00;99.90;;;;;;5013660;28;20231;-52
2023/08/03 00:34:49;;;;;;;0.90;0.90;;;18.90;99.90;;;;;;5012717;28;20661;-52
2023/08/03 00:37:17;;;;;;;3.03;1.07;;;18.80;99.90;;;;;;5007854;28;20219;-52
2023/08/03 00:39:44;;;;;;;0.70;0.70;;;18.80;99.90;;;;;;5014782;28;20219;-53
2023/08/03 00:42:11;;;;;;;0.70;0.70;;;18.70;99.90;;;;;;5010583;28;20254;-52
2023/08/03 00:44:38;;;;;;;0.90;0.90;;;18.70;99.90;;;;;;5011012;28;20203;-52
2023/08/03 00:47:07;;;;;;;0.93;0.83;;;18.80;99.90;;;;;;5013744;28;20219;-52
2023/08/03 00:49:34;;;;;;;0.87;0.87;;;18.80;99.90;;;;;;5014464;28;20195;-51
2023/08/03 00:52:01;;;;;;;1.50;0.93;;;18.70;99.90;;;;;;5013505;28;20203;-52
2023/08/03 00:54:28;;;;;;;1.93;1.00;;;18.60;99.90;;;;;;5013938;28;20265;-52
2023/08/03 00:56:55;;;;;;;0.70;0.70;;;18.60;99.90;;;;;;5014181;28;20608;-52
2023/08/03 00:59:22;;;;;;;0.80;0.80;;;18.70;99.90;;;;;;5013501;28;20223;-52
2023/08/03 01:01:49;;;;;;;0.87;0.87;;;18.70;99.90;;;;;;5005089;28;20235;-52
2023/08/03 01:04:17;;;;;;;1.03;1.03;;;18.70;99.90;;;;;;5014091;28;20651;-52
2023/08/03 01:06:45;;;;;;;0.90;0.90;;;18.60;99.90;;;;;;5014171;28;20223;-52
2023/08/03 01:09:12;;;;;;;1.40;1.30;;;18.40;99.90;;;;;;5014106;28;20261;-51
2023/08/03 01:11:39;;;;;;;0.87;0.87;;;18.40;99.90;;;;;;5012582;28;20214;-53
2023/08/03 01:14:06;;;;;;;1.20;1.10;;;18.20;99.90;;;;;;5013663;28;20688;-52
2023/08/03 01:16:33;;;;;;;0.83;0.83;;;18.20;99.90;;;;;;5014045;28;20227;-52
2023/08/03 01:19:00;;;;;;;0.70;0.70;;;18.20;99.90;;;;;;5013988;28;20214;-52
2023/08/03 01:21:30;;;;;;;1.80;1.37;;;18.10;99.90;;;;;;5013164;28;20203;-52
2023/08/03 01:23:58;;;;;;;1.23;1.13;;;18.10;99.90;;;;;;5013014;28;20203;-52
2023/08/03 01:26:25;;;;;;;1.93;1.13;;;18.00;99.90;;;;;;5013847;28;20224;-52
2023/08/03 01:28:52;;;;;;;0.70;0.70;;;18.00;99.90;;;;;;5013898;28;20230;-52
2023/08/03 01:31:20;;;;;;;1.03;1.03;;;17.90;99.90;;;;;;5012830;28;20280;-52
2023/08/03 01:33:47;;;;;;;3.80;1.00;;;18.00;99.90;;;;;;5013139;28;20282;-52
2023/08/03 01:36:14;;;;;;;1.60;1.50;;;18.00;99.90;;;;;;5003217;28;20713;-52
2023/08/03 01:38:41;;;;;;;1.00;1.00;;;17.90;99.90;;;;;;5010287;28;20269;-51
2023/08/03 01:41:10;;;;;;;1.30;1.30;;;17.90;99.90;;;;;;5006084;28;20246;-52
2023/08/03 01:43:37;;;;;;;0.90;0.90;;;17.90;99.90;;;;;;5013258;28;20203;-52
2023/08/03 01:46:05;;;;;;;1.40;1.30;;;17.80;99.90;;;;;;5013566;28;20223;-52
2023/08/03 01:48:32;;;;;;;1.07;1.03;;;17.70;99.90;;;;;;5012537;28;20246;-51
2023/08/03 01:50:59;;;;;;;1.37;0.93;;;17.70;99.90;;;;;;5012413;28;20199;-53
2023/08/03 01:53:25;;;;;;;0.70;0.60;;;17.60;99.90;;;;;;5013261;28;20232;-52
2023/08/03 01:55:52;;;;;;;6.53;1.00;;;17.60;99.90;;;;;;5012433;28;20624;-52
2023/08/03 01:58:21;;;;;;;0.70;0.70;;;17.60;99.90;;;;;;5006766;28;20206;-52
2023/08/03 02:00:47;;;;;;;1.40;1.30;;;17.50;99.90;;;;;;5012029;28;20222;-52
2023/08/03 02:03:14;;;;;;;1.97;0.70;;;17.40;99.90;;;;;;5012027;28;20211;-52
2023/08/03 02:05:41;;;;;;;0.60;0.60;;;17.30;99.90;;;;;;5013216;28;20623;-52
2023/08/03 02:08:08;;;;;;;1.83;0.97;;;17.40;99.90;;;;;;5013030;28;20262;-52
2023/08/03 02:10:35;;;;;;;0.97;0.83;;;17.30;99.90;;;;;;5012390;28;20199;-52
2023/08/03 02:13:02;;;;;;;0.60;0.60;;;17.20;99.90;;;;;;5012718;28;20199;-52
2023/08/03 02:15:30;;;;;;;1.60;0.57;;;17.20;99.90;;;;;;5005519;28;20270;-52
2023/08/03 02:17:58;;;;;;;1.13;0.80;;;17.10;99.90;;;;;;5011375;28;20612;-53
2023/08/03 02:20:25;;;;;;;1.57;1.00;;;17.20;99.90;;;;;;5011796;28;20219;-52
2023/08/03 02:22:52;;;;;;;2.60;0.83;;;17.20;99.90;;;;;;5012595;28;20257;-52
2023/08/03 02:25:23;;;;;;;1.07;1.07;;;17.20;99.90;;;;;;5012778;28;20203;-52
2023/08/03 02:27:51;;;;;;;0.70;0.70;;;17.10;99.90;;;;;;5010589;28;20704;-52
2023/08/03 02:30:18;;;;;;;3.03;1.20;;;17.10;99.90;;;;;;5005196;28;20282;-52
2023/08/03 02:32:46;;;;;;;0.80;0.70;;;16.90;99.90;;;;;;5012539;28;20249;-52
2023/08/03 02:35:13;;;;;;;0.63;0.60;;;16.90;99.90;;;;;;5012774;28;20202;-52
2023/08/03 02:37:40;;;;;;;0.70;0.70;;;16.90;99.90;;;;;;5003549;28;20224;-52
2023/08/03 02:40:08;;;;;;;1.83;0.80;;;16.90;99.90;;;;;;5010238;28;20219;-52
2023/08/03 02:42:35;;;;;;;0.80;0.80;;;16.80;99.90;;;;;;5012144;28;20669;-52
2023/08/03 02:45:02;;;;;;;1.10;1.00;;;16.80;99.90;;;;;;5010265;28;20199;-52
2023/08/03 02:47:29;;;;;;;0.73;0.70;;;16.80;99.90;;;;;;5010802;28;20231;-52
2023/08/03 02:49:57;;;;;;;1.30;0.80;;;16.80;99.90;;;;;;5010614;28;20246;-53
2023/08/03 02:52:24;;;;;;;1.50;0.87;;;16.80;99.90;;;;;;5008426;28;20195;-52
2023/08/03 02:54:51;;;;;;;3.67;1.00;;;16.70;99.90;;;;;;5011857;28;20257;-51
2023/08/03 02:57:18;;;;;;;1.07;0.97;;;16.70;99.90;;;;;;5034891;22;20325;-53
2023/08/03 02:59:45;;;;;;;1.73;1.20;;;16.80;99.90;;;;;;5010289;28;20223;-54
2023/08/03 03:02:12;;;;;;;1.70;0.70;;;16.80;99.90;;;;;;5004022;28;20250;-53
2023/08/03 03:04:39;;;;;;;1.23;1.13;;;16.90;99.90;;;;;;5011669;28;20669;-53
2023/08/03 03:07:08;;;;;;;0.90;0.90;;;16.90;99.90;;;;;;5003376;28;20223;-53
2023/08/03 03:09:35;;;;;;;3.50;1.03;;;16.90;99.90;;;;;;5009711;28;20324;-53
2023/08/03 03:12:02;;;;;;;1.37;1.10;;;16.90;99.90;;;;;;5003258;28;21641;-53
2023/08/03 03:14:29;;;;;;;1.90;1.23;;;16.90;99.90;;;;;;5005697;28;20268;-54
2023/08/03 03:16:56;;;;;;;5.67;1.07;;;16.90;99.90;;;;;;5001620;28;20333;-53
2023/08/03 03:19:23;;;;;;;1.20;1.10;;;16.80;99.90;;;;;;5010236;28;20199;-54
2023/08/03 03:21:50;;;;;;;1.33;1.00;;;16.80;99.90;;;;;;5011331;28;20739;-53
2023/08/03 03:24:18;;;;;;;1.17;1.17;;;16.70;99.90;;;;;;5008843;28;20199;-53
2023/08/03 03:26:45;;;;;;;1.73;0.90;;;16.80;99.90;;;;;;5001659;28;20239;-53
2023/08/03 03:29:12;;;;;;;0.90;0.80;;;16.90;99.90;;;;;;5011146;28;20662;-53
2023/08/03 03:31:39;;;;;;;2.00;0.73;;;17.00;99.90;;;;;;5011338;28;20199;-53
2023/08/03 03:34:06;;;;;;;0.73;0.73;;;17.00;99.90;;;;;;5011329;28;20199;-54
2023/08/03 03:36:33;;;;;;;0.90;0.90;;;17.00;99.90;;;;;;5010588;28;20223;-54
2023/08/03 03:39:00;;;;;;;3.60;1.40;;;17.00;99.90;;;;;;4999292;28;20203;-53
2023/08/03 03:41:28;;;;;;;1.90;1.10;;;17.00;99.90;;;;;;5004055;28;20232;-53
2023/08/03 03:43:55;;;;;;;1.67;0.97;;;16.90;99.90;;;;;;5009306;28;20751;-53
2023/08/03 03:46:22;;;;;;;2.13;1.27;;;16.90;99.90;;;;;;5010935;28;20254;-53
2023/08/03 03:48:49;;;;;;;0.90;0.90;;;16.90;99.90;;;;;;5002677;28;20211;-53
2023/08/03 03:51:18;;;;;;;1.50;1.20;;;16.90;99.90;;;;;;5010225;28;20195;-53
2023/08/03 03:53:45;;;;;;;0.87;0.87;;;16.90;99.90;;;;;;5001134;28;20204;-53
2023/08/03 03:56:12;;;;;;;1.90;1.17;;;17.00;99.90;;;;;;5010990;28;20257;-51
2023/08/03 03:58:41;;;;;;;2.93;1.00;;;17.10;99.90;;;;;;5004011;28;20207;-50
2023/08/03 04:01:07;;;;;;;2.20;1.10;;;17.20;99.90;;;;;;5015128;28;20566;-51
2023/08/03 04:03:34;;;;;;;1.97;0.97;;;17.10;99.90;;;;;;5014861;28;20203;-51
2023/08/03 04:06:01;;;;;;;1.27;0.87;;;17.00;99.90;;;;;;5005802;28;20231;-52
2023/08/03 04:08:28;;;;;;;2.10;1.13;;;17.00;99.90;;;;;;5005808;28;20228;-52
2023/08/03 04:10:55;;;;;;;1.63;0.83;;;16.90;99.90;;;;;;5010437;28;20196;-51
2023/08/03 04:13:22;;;;;;;3.33;1.20;;;16.90;99.90;;;;;;5005624;28;20203;-52
2023/08/03 04:15:50;;;;;;;1.80;0.90;;;17.00;99.90;;;;;;5016905;28;20354;-52
2023/08/03 04:18:17;;;;;;;1.30;1.30;;;17.00;99.90;;;;;;5005296;28;20269;-52
2023/08/03 04:20:44;;;;;;;1.17;0.97;;;17.00;99.90;;;;;;4994966;28;20212;-52
2023/08/03 04:23:11;;;;;;;3.00;0.90;;;17.00;99.90;;;;;;4994695;28;20200;-52
2023/08/03 04:25:38;;;;;;;4.27;1.03;;;17.20;99.90;;;;;;4994865;28;20223;-52
2023/08/03 04:28:05;;;;;;;0.80;0.80;;;17.10;99.90;;;;;;5002218;28;20363;-51
2023/08/03 04:30:32;;;;;;;3.00;0.90;;;17.20;99.90;;;;;;5009464;28;20195;-52
2023/08/03 04:33:00;;;;;;;1.37;0.80;;;17.20;99.90;;;;;;5014169;28;20214;-52
2023/08/03 04:35:27;;;;;;;1.03;0.70;;;17.20;99.90;;;;;;5014369;28;20199;-51
2023/08/03 04:37:55;;;;;;;2.53;1.10;;;17.20;99.90;;;;;;5004354;28;20279;-52
2023/08/03 04:40:22;;;;;;;6.93;2.50;;;17.30;99.90;;;;;;5013930;28;20261;-52
2023/08/03 04:42:49;;;;;;;3.90;1.53;;;17.30;99.90;;;;;;5014142;28;20207;-52
2023/08/03 04:45:16;;;;;;;4.83;1.20;;;17.30;99.90;;;;;;5013540;28;20211;-52
2023/08/03 04:47:43;;;;;;;2.03;1.10;;;17.30;99.90;;;;;;5010826;28;20273;-51
2023/08/03 04:50:11;;;;;;;2.97;0.97;;;17.30;99.90;;;;;;5013706;28;20203;-52
2023/08/03 04:52:38;;;;;;;3.80;0.90;;;17.30;99.90;;;;;;5013859;28;20207;-51
2023/08/03 04:55:06;;;;;;;1.93;0.80;;;17.30;99.90;;;;;;5013889;28;20230;-52
2023/08/03 04:57:33;;;;;;;2.03;0.90;;;17.40;99.90;;;;;;5005415;28;20235;-52
2023/08/03 04:59:59;;;;;;;2.23;1.10;;;17.40;99.90;;;;;;5012601;28;20207;-52
2023/08/03 05:02:26;;;;;;;2.10;0.57;;;17.50;99.90;;;;;;5013901;28;20203;-52
2023/08/03 05:04:53;;;;;;;8.27;0.83;;;17.50;99.90;;;;;;5014295;28;20237;-52
2023/08/03 05:07:22;;;;;;;3.57;0.70;;;17.70;99.90;;;;;;5008421;28;20227;-51
2023/08/03 05:09:49;;;;;;;2.07;0.77;;;17.70;99.90;;;;;;5007282;28;20199;-52
2023/08/03 05:12:15;;;;;;;4.30;1.00;;;17.80;99.90;;;;;;5010432;28;20665;-51
2023/08/03 05:14:42;;;;;;;2.90;0.97;;;17.80;99.90;;;;;;5013457;28;20229;-52
2023/08/03 05:17:09;;;;;;;2.90;1.27;;;17.80;99.90;;;;;;5011305;28;20227;-52
2023/08/03 05:19:37;;;;;;;2.87;0.93;;;17.70;99.90;;;;;;5003379;28;20203;-51
2023/08/03 05:22:05;;;;;;;0.90;0.50;;;17.70;99.90;;;;;;5010114;28;20607;-52
2023/08/03 05:24:33;;;;;;;2.63;1.13;;;17.70;99.90;;;;;;5007838;28;20525;-52
2023/08/03 05:27:00;;;;;;;4.00;1.10;;;17.80;99.90;;;;;;4997075;28;20262;-52
2023/08/03 05:29:27;;;;;;;6.47;1.00;;;17.80;99.90;;;;;;5013299;28;20330;-52
2023/08/03 05:31:54;;;;;;;2.80;0.83;;;18.00;99.90;;;;;;5013151;28;20254;-51
2023/08/03 05:34:21;;;;;;;3.00;0.77;;;18.00;99.90;;;;;;5012479;28;20558;-52
2023/08/03 05:36:52;;;;;;;2.40;0.87;;;18.00;99.90;;;;;;5009590;28;20763;-51
2023/08/03 05:39:19;;;;;;;1.60;0.80;;;18.00;99.90;;;;;;5010481;28;20239;-52
2023/08/03 05:41:48;;;;;;;4.97;0.90;;;18.10;99.90;;;;;;5004839;28;20219;-51
2023/08/03 05:44:16;;;;;;;3.40;0.87;;;18.10;99.90;;;;;;5012670;28;20669;-52
2023/08/03 05:46:45;;;;;;;2.13;0.50;;;18.20;99.90;;;;;;5012034;28;20219;-51
2023/08/03 05:49:13;;;;;;;2.20;0.77;;;18.30;99.90;;;;;;5004349;28;20257;-52
2023/08/03 05:51:40;;;;;;;2.43;1.00;;;18.30;99.90;;;;;;5012410;28;20199;-52
2023/08/03 05:54:14;;;;;;;2.43;0.97;;;18.30;99.90;;;;;;5012722;28;20195;-52
2023/08/03 05:56:42;;;;;;;4.93;1.13;;;18.40;99.90;;;;;;5003546;28;20313;-51
2023/08/03 05:59:18;;;;;;;3.63;0.97;;;18.30;99.90;;;;;;4993324;28;20270;-51
2023/08/03 06:01:45;;;;;;;1.97;0.73;;;18.30;99.90;;;;;;5002350;28;20222;-51
2023/08/03 06:04:12;;;;;;;3.83;0.77;;;18.30;99.90;;;;;;5009715;28;20586;-52
2023/08/03 06:06:39;;;;;;;2.60;0.83;;;18.30;99.90;;;;;;5009055;28;20281;-51
2023/08/03 06:09:06;;;;;;;2.63;0.60;;;18.40;99.90;;;;;;5011038;28;20203;-52
2023/08/03 06:11:33;;;;;;;2.20;0.80;;;18.50;99.90;;;;;;5009920;28;20195;-52
2023/08/03 06:14:00;;;;;;;1.50;0.80;;;18.60;99.90;;;;;;5007693;28;20195;-51
2023/08/03 06:16:29;;;;;;;2.50;0.57;;;18.50;99.90;;;;;;5003943;28;20269;-52
2023/08/03 06:18:58;;;;;;;4.30;0.60;;;18.60;99.90;;;;;;5012149;28;20685;-52
2023/08/03 06:21:28;;;;;;;2.43;1.03;;;18.70;99.90;;;;;;5011162;28;20595;-51
2023/08/03 06:23:57;;;;;;;4.27;0.90;;;18.80;99.90;;;;;;5006964;28;20206;-52
2023/08/03 06:26:26;;;;;;;3.17;0.87;;;18.90;99.90;;;;;;5006840;28;20254;-52
2023/08/03 06:28:54;;;;;;;1.47;0.50;;;18.90;99.90;;;;;;5011778;28;20245;-51
2023/08/03 06:31:25;;;;;;;0.93;0.50;;;19.00;99.90;;;;;;5004935;28;20204;-52
2023/08/03 06:33:53;;;;;;;2.50;0.50;;;19.00;99.90;;;;;;5008365;28;20199;-52
2023/08/03 06:36:21;;;;;;;1.27;0.40;;;19.10;99.90;;;;;;5011834;28;20269;-51
2023/08/03 06:38:48;;;;;;;3.43;0.60;;;19.10;99.90;;;;;;5002918;28;20211;-51
2023/08/03 06:41:16;;;;;;;1.43;0.50;;;19.10;99.90;;;;;;5006682;28;20216;-52
2023/08/03 06:43:44;;;;;;;3.93;0.67;;;19.20;99.90;;;;;;5008374;28;20202;-52
2023/08/03 06:46:11;;;;;;;1.23;0.50;;;19.20;99.90;;;;;;5007394;28;20199;-52
2023/08/03 06:48:38;;;;;;;1.80;0.70;;;19.30;99.90;;;;;;5009452;28;20253;-51
2023/08/03 06:51:07;;;;;;;0.60;0.37;;;19.30;99.90;;;;;;5011582;28;20203;-52
2023/08/03 06:53:34;;;;;;;0.60;0.60;;;19.30;99.90;;;;;;5011634;28;20249;-52
2023/08/03 06:56:01;;;;;;;3.13;0.90;;;19.30;99.90;;;;;;5011954;28;20268;-52
2023/08/03 06:58:28;;;;;;;4.53;0.93;;;19.30;99.90;;;;;;5002204;28;20231;-51
2023/08/03 07:00:55;;;;;;;1.87;0.80;;;19.50;99.90;;;;;;5011645;28;20285;-52
2023/08/03 07:03:22;;;;;;;4.07;1.63;;;19.60;99.90;;;;;;5011354;28;20539;-51
2023/08/03 07:05:48;;;;;;;0.83;0.80;;;19.60;99.90;;;;;;5011618;28;20207;-51
2023/08/03 07:08:17;;;;;;;0.90;0.50;;;19.50;99.90;;;;;;5003369;28;20269;-51
2023/08/03 07:10:44;;;;;;;3.23;0.40;;;19.60;99.90;;;;;;5008440;28;20199;-51
2023/08/03 07:13:11;;;;;;;1.33;0.73;;;19.70;99.90;;;;;;5011500;28;20207;-52
2023/08/03 07:15:38;;;;;;;1.23;0.50;;;19.80;99.90;;;;;;5011395;28;20254;-51
2023/08/03 07:18:06;;;;;;;1.57;0.53;;;19.90;99.90;;;;;;5007305;28;20270;-52
2023/08/03 07:20:34;;;;;;;2.33;0.50;;;20.00;99.90;;;;;;5007002;28;20265;-51
2023/08/03 07:23:01;;;;;;;1.07;0.37;;;20.10;99.90;;;;;;5011054;28;20629;-52
2023/08/03 07:25:33;;;;;;;3.33;0.40;;;20.20;99.90;;;;;;5011605;28;20207;-52
2023/08/03 07:28:00;;;;;;;3.43;0.50;;;20.30;99.90;;;;;;5008172;28;20246;-51
2023/08/03 07:30:27;;;;;;;1.27;0.40;;;20.50;99.90;;;;;;4998945;28;20215;-52
2023/08/03 07:32:56;;;;;;;1.13;0.40;;;20.60;99.90;;;;;;5013031;28;20191;-52
2023/08/03 07:35:23;;;;;;;1.23;0.60;;;20.70;99.90;;;;;;5018096;28;20199;-51
2023/08/03 07:37:53;;;;;;;1.73;0.40;;;20.80;99.90;;;;;;5015727;28;20668;-52
2023/08/03 07:40:21;;;;;;;2.40;1.27;;;20.90;99.90;;;;;;5009351;28;20253;-52
2023/08/03 07:42:52;;;;;;;1.37;0.37;;;21.10;99.90;;;;;;5017446;28;20265;-52
2023/08/03 07:45:19;;;;;;;2.43;0.53;;;21.30;99.90;;;;;;5017403;28;20627;-52
2023/08/03 07:47:46;;;;;;;1.13;0.30;;;21.30;99.90;;;;;;5007822;28;20219;-52
2023/08/03 07:50:13;;;;;;;1.83;0.40;;;21.40;99.90;;;;;;5010230;28;20198;-52
2023/08/03 07:52:40;;;;;;;1.77;0.60;;;21.60;99.90;;;;;;5017400;28;20262;-52
2023/08/03 07:55:08;;;;;;;1.80;0.30;;;22.40;99.90;;;;;;5017607;28;20199;-51
2023/08/03 07:57:38;;;;;;;1.83;0.57;;;23.50;99.90;;;;;;5017056;28;20231;-52
2023/08/03 08:00:08;;;;;;;1.90;0.57;;;24.30;99.90;;;;;;5017568;28;20604;-52
2023/08/03 08:02:37;;;;;;;0.60;0.60;;;24.30;99.90;;;;;;5015445;28;20219;-52
2023/08/03 08:05:04;;;;;;;1.27;0.47;;;24.00;99.90;;;;;;5013884;28;20716;-51
2023/08/03 08:07:31;;;;;;;1.00;0.27;;;23.90;99.90;;;;;;5011730;28;20313;-52
2023/08/03 08:09:58;;;;;;;1.80;0.43;;;23.90;99.90;;;;;;5014236;28;20200;-52
2023/08/03 08:12:25;;;;;;;2.67;0.33;;;23.60;99.90;;;;;;5013790;28;20257;-52
2023/08/03 08:14:52;;;;;;;0.73;0.40;;;23.30;99.90;;;;;;5016678;28;20259;-51
2023/08/03 08:17:20;;;;;;;1.40;0.23;;;23.40;99.90;;;;;;5011708;28;20224;-52
2023/08/03 08:19:47;;;;;;;0.97;0.40;;;23.50;99.90;;;;;;5005601;28;20249;-52
2023/08/03 08:22:14;;;;;;;1.20;0.50;;;23.30;99.90;;;;;;5012319;28;20215;-52
2023/08/03 08:24:41;;;;;;;0.40;0.40;;;23.10;99.90;;;;;;5010278;28;20202;-52
2023/08/03 08:27:08;;;;;;;0.73;0.40;;;23.00;99.90;;;;;;5007681;28;20223;-52
2023/08/03 08:29:35;;;;;;;1.53;0.40;;;22.70;99.90;;;;;;5015996;28;20265;-51
2023/08/03 08:32:02;;;;;;;2.00;1.00;;;22.60;99.90;;;;;;5013022;28;20203;-52
2023/08/03 08:34:30;;;;;;;2.67;0.43;;;22.50;99.90;;;;;;5007018;28;20203;-52
2023/08/03 08:36:57;;;;;;;0.90;0.40;;;22.50;99.90;;;;;;5007835;28;20220;-52
2023/08/03 08:39:24;;;;;;;0.67;0.40;;;22.60;99.90;;;;;;5010806;28;20295;-52
2023/08/03 08:41:51;;;;;;;5.33;0.83;;;22.60;99.90;;;;;;5007914;28;20597;-52
2023/08/03 08:44:18;;;;;;;1.30;0.50;;;22.60;99.90;;;;;;5009598;28;20199;-52
2023/08/03 08:46:45;;;;;;;0.40;0.40;;;22.60;99.90;;;;;;5005865;28;20266;-52
2023/08/03 08:49:13;;;;;;;1.03;0.30;;;22.70;99.90;;;;;;5007922;28;20344;-52
2023/08/03 08:51:42;;;;;;;0.73;0.47;;;22.80;99.90;;;;;;5009722;28;20254;-51
2023/08/03 08:54:09;;;;;;;2.40;0.40;;;22.80;99.90;;;;;;5005725;28;20203;-52
2023/08/03 08:56:37;;;;;;;0.77;0.53;;;22.90;99.90;;;;;;5005217;28;20238;-51
2023/08/03 08:59:04;;;;;;;0.87;0.63;;;22.90;99.90;;;;;;5004806;28;20206;-52
2023/08/03 09:01:50;;;;;;;2.33;0.67;;;22.80;99.90;;;;;;5012840;28;20230;-52
2023/08/03 09:04:30;;;;;;;1.20;0.63;;;22.80;99.90;;;;;;5006842;28;20199;-52
2023/08/03 09:06:59;;;;;;;0.97;0.40;;;22.80;99.90;;;;;;5013824;28;20253;-52
2023/08/03 09:09:29;;;;;;;0.70;0.40;;;23.10;99.90;;;;;;5013790;28;20211;-52
2023/08/03 09:11:56;;;;;;;0.97;0.50;;;23.20;99.90;;;;;;5003939;28;20227;-52
2023/08/03 09:14:24;;;;;;;2.80;1.00;;;23.20;99.90;;;;;;5003543;28;20301;-52
2023/08/03 09:16:51;;;;;;;0.83;0.30;;;23.40;99.90;;;;;;5004596;28;20223;-51
2023/08/03 09:19:37;;;;;;;2.63;0.50;;;23.70;99.90;;;;;;5008092;28;20624;-51
2023/08/03 09:22:06;;;;;;;1.10;0.50;;;23.70;99.90;;;;;;5010468;28;20218;-51
2023/08/03 09:24:33;;;;;;;3.60;0.83;;;23.90;99.90;;;;;;5006276;28;20274;-52
2023/08/03 09:27:00;;;;;;;0.50;0.50;;;23.90;99.90;;;;;;5011784;28;20666;-53
2023/08/03 09:29:32;;;;;;;0.63;0.63;;;23.90;99.90;;;;;;5037086;22;20632;-54
2023/08/03 09:32:04;;;;;;;1.40;0.30;;;23.90;99.90;;;;;;5028347;28;20230;-54
2023/08/03 09:34:39;;;;;;;2.13;0.40;;;23.80;99.90;;;;;;5015976;28;20196;-54
2023/08/03 09:37:10;;;;;;;0.70;0.37;;;23.50;99.90;;;;;;5015657;28;20273;-54
2023/08/03 09:39:40;;;;;;;1.77;0.30;;;23.40;99.90;;;;;;5020427;28;20323;-54
2023/08/03 09:42:10;;;;;;;0.97;0.40;;;23.50;99.90;;;;;;5013282;28;20259;-55
2023/08/03 09:44:38;;;;;;;1.13;0.40;;;23.50;99.90;;;;;;5013196;28;20222;-54
2023/08/03 09:47:06;;;;;;;0.40;0.40;;;23.30;99.90;;;;;;5013252;28;20203;-54
2023/08/03 09:49:34;;;;;;;3.20;0.50;;;23.20;99.90;;;;;;5013442;28;20229;-54
2023/08/03 09:52:10;;;;;;;1.80;0.40;;;23.10;99.90;;;;;;4993634;28;20196;-54
2023/08/03 09:54:40;;;;;;;1.27;0.70;;;23.00;99.90;;;;;;4999748;28;20285;-54
2023/08/03 09:57:11;;;;;;;0.90;0.40;;;23.10;99.90;;;;;;5012980;28;20254;-54
2023/08/03 09:59:43;;;;;;;1.07;0.27;;;23.30;99.90;;;;;;5012991;28;20717;-55
2023/08/03 10:02:14;;;;;;;2.10;0.57;;;23.30;99.90;;;;;;5012589;28;20739;-55
2023/08/03 10:04:44;;;;;;;2.00;0.70;;;23.40;99.90;;;;;;5013069;28;20203;-55
2023/08/03 10:07:17;;;;;;;1.10;0.80;;;23.50;99.90;;;;;;5013164;28;20627;-55
2023/08/03 10:09:45;;;;;;;1.43;0.40;;;23.50;99.90;;;;;;5013032;28;20285;-55
2023/08/03 10:12:19;;;;;;;2.00;0.40;;;23.50;99.90;;;;;;5011388;28;20211;-54
2023/08/03 10:14:50;;;;;;;0.50;0.50;;;23.50;99.90;;;;;;5001140;28;20249;-54
2023/08/03 10:17:19;;;;;;;1.33;0.33;;;23.30;99.90;;;;;;4993244;28;20720;-55
2023/08/03 10:19:47;;;;;;;1.77;0.50;;;23.30;99.90;;;;;;5005419;28;20278;-54
2023/08/03 10:22:16;;;;;;;2.73;0.20;;;23.50;99.90;;;;;;5010402;28;20234;-54
2023/08/03 10:25:17;;;;;;;0.77;0.37;;;23.60;99.90;;;;;;5003831;28;20207;-54
2023/08/03 10:28:12;;;;;;;0.70;0.47;;;24.30;99.90;;;;;;5012641;28;20573;-54
2023/08/03 10:31:04;;;;;;;2.23;0.50;;;25.50;99.90;;;;;;5008564;28;20234;-54
2023/08/03 10:34:07;;;;;;;0.80;0.23;;;26.30;99.90;;;;;;5004849;28;20295;-55
2023/08/03 10:36:51;;;;;;;1.67;0.30;;;26.10;99.90;;;;;;4987722;28;20677;-55
2023/08/03 10:39:50;;;;;;;1.40;0.90;;;26.10;99.90;;;;;;4993006;28;20250;-55
2023/08/03 10:42:38;;;;;;;0.77;0.30;;;25.80;99.90;;;;;;4992410;28;20272;-55
2023/08/03 10:45:25;;;;;;;0.75;0.30;;;25.40;99.90;;;;;;4994768;28;20680;-55
2023/08/03 10:47:55;;;;;;;0.73;0.43;;;25.50;99.90;;;;;;5003976;28;20199;-62
2023/08/03 10:50:57;;;;;;;0.40;0.40;;;25.30;99.90;;;;;;5005106;28;20231;-61
2023/08/03 10:53:25;;;;;;;2.23;0.50;;;25.10;99.90;;;;;;5007431;28;20194;-61
2023/08/03 10:56:07;;;;;;;0.43;0.33;;;25.00;99.90;;;;;;5009702;28;20198;-61
2023/08/03 10:58:47;;;;;;;0.40;0.33;;;25.00;99.90;;;;;;5007371;28;20704;-61
2023/08/03 11:01:16;;;;;;;0.57;0.57;;;25.10;99.90;;;;;;5011913;28;20207;-61
2023/08/03 11:03:43;;;;;;;0.40;0.40;;;25.00;99.90;;;;;;5011733;28;20226;-62
2023/08/03 11:06:10;;;;;;;0.97;0.20;;;24.90;99.90;;;;;;5011576;28;20206;-61
2023/08/03 11:08:39;;;;;;;0.70;0.50;;;24.80;99.90;;;;;;5011289;28;20230;-61
2023/08/03 11:11:11;;;;;;;0.97;0.50;;;24.50;99.90;;;;;;5011797;28;20206;-61
2023/08/03 11:13:38;;;;;;;0.63;0.30;;;24.40;99.90;;;;;;5011633;28;20302;-60
2023/08/03 11:16:06;;;;;;;0.70;0.57;;;24.40;99.90;;;;;;5011947;28;20219;-61
2023/08/03 11:18:35;;;;;;;2.37;0.50;;;24.30;99.90;;;;;;5011059;28;20277;-60
2023/08/03 11:21:02;;;;;;;0.50;0.30;;;24.00;99.90;;;;;;4999571;28;20258;-60
2023/08/03 11:23:31;;;;;;;1.23;0.40;;;23.80;99.90;;;;;;5006272;28;20223;-60
2023/08/03 11:26:00;;;;;;;1.43;0.50;;;23.80;99.90;;;;;;5011065;28;20202;-60
2023/08/03 11:28:27;;;;;;;0.73;0.30;;;23.80;99.90;;;;;;5011522;28;20223;-60
2023/08/03 11:30:55;;;;;;;1.27;0.50;;;23.60;99.90;;;;;;5009363;28;20207;-60
2023/08/03 11:33:22;;;;;;;0.37;0.30;;;23.50;99.90;;;;;;5001751;28;20657;-61
2023/08/03 11:35:48;;;;;;;0.57;0.30;;;23.40;99.90;;;;;;5011087;28;20207;-60
2023/08/03 11:38:15;;;;;;;0.70;0.67;;;23.30;99.90;;;;;;5006688;28;20208;-63
2023/08/03 11:40:43;;;;;;;0.50;0.43;;;23.30;99.90;;;;;;5004814;28;20203;-60
2023/08/03 11:43:11;;;;;;;0.97;0.47;;;23.20;99.90;;;;;;5008670;28;20265;-60
2023/08/03 11:45:43;;;;;;;2.20;0.40;;;23.20;99.90;;;;;;5010869;28;20206;-62
2023/08/03 11:48:10;;;;;;;1.10;0.50;;;23.20;99.90;;;;;;5003976;28;20249;-61
2023/08/03 11:50:37;;;;;;;5.23;0.50;;;23.20;99.90;;;;;;5009671;28;20199;-61
2023/08/03 11:53:04;;;;;;;0.30;0.30;;;23.20;99.90;;;;;;5001345;28;20645;-60
2023/08/03 11:55:35;;;;;;;1.60;0.43;;;23.10;99.90;;;;;;5007526;28;20200;-62
2023/08/03 11:58:10;;;;;;;0.70;0.20;;;22.90;99.90;;;;;;5006515;28;20731;-62
2023/08/03 12:00:39;;;;;;;0.73;0.30;;;22.90;99.90;;;;;;5010239;28;20198;-62
2023/08/03 12:03:07;;;;;;;0.53;0.20;;;23.00;99.90;;;;;;5009946;28;20273;-61
2023/08/03 12:05:47;;;;;;;0.33;0.33;;;23.00;99.90;;;;;;5011474;28;20199;-60
2023/08/03 12:08:17;;;;;;;0.43;0.30;;;23.00;99.90;;;;;;5006992;28;20207;-60
2023/08/03 12:10:59;;;;;;;0.20;0.20;;;23.00;99.90;;;;;;5009552;28;20200;-57
2023/08/03 12:13:26;;;;;;;1.00;0.40;;;23.00;99.90;;;;;;5007301;28;20755;-56
2023/08/03 12:15:55;;;;;;;1.53;0.30;;;22.80;99.90;;;;;;5001586;28;20225;-58
2023/08/03 12:18:22;;;;;;;1.40;0.23;;;22.70;99.90;;;;;;5003450;28;20231;-58
2023/08/03 12:20:50;;;;;;;0.93;0.40;;;22.80;99.90;;;;;;5008323;28;20204;-62
2023/08/03 12:23:17;;;;;;;0.40;0.33;;;22.80;99.90;;;;;;5007893;28;20314;-62
2023/08/03 12:25:44;;;;;;;1.40;0.40;;;22.60;99.90;;;;;;5008205;28;20285;-61
2023/08/03 12:28:11;;;;;;;1.53;0.70;;;22.60;99.90;;;;;;5006527;28;20199;-66
2023/08/03 12:30:39;;;;;;;1.57;0.40;;;22.60;99.90;;;;;;5007557;28;20261;-61
2023/08/03 12:33:08;;;;;;;0.20;0.20;;;22.60;99.90;;;;;;5008064;28;20200;-61
2023/08/03 12:35:36;;;;;;;1.03;0.20;;;22.60;99.90;;;;;;5013966;28;20207;-65
2023/08/03 12:38:03;;;;;;;2.17;0.30;;;22.70;99.90;;;;;;5011010;28;20736;-62
2023/08/03 12:40:30;;;;;;;1.20;0.30;;;22.70;99.90;;;;;;5007357;28;20481;-65
2023/08/03 12:42:57;;;;;;;1.17;0.40;;;22.70;99.90;;;;;;5006598;28;20270;-63
2023/08/03 12:45:25;;;;;;;1.50;0.30;;;22.70;99.90;;;;;;5005138;28;20261;-61
2023/08/03 12:47:56;;;;;;;0.43;0.40;;;22.70;99.90;;;;;;5007251;28;20286;-62
2023/08/03 12:50:25;;;;;;;1.03;0.40;;;22.90;99.90;;;;;;5007213;28;20743;-63
2023/08/03 12:52:55;;;;;;;0.50;0.23;;;22.90;99.90;;;;;;5006016;28;20570;-63
2023/08/03 12:55:22;;;;;;;0.87;0.23;;;23.00;99.90;;;;;;5007052;28;20682;-63